Time;durP1;ratioP1;P1;durP2;ratioP2;P2;SDS_P1;SDS_P2;PMS_P1;PMS_P2;Temp;Humidity;BMP_temperature;BMP_pressure;BME280_temperature;BME280_humidity;BME280_pressure;Samples;Min_cycle;Max_cycle;Signal;HPM_P1;HPM_P2
2021/08/23 00:01:59;;;;;;;8.13;6.50;;;;;;;;;;4977265;28;20478;-79
2021/08/23 00:04:36;;;;;;;6.70;5.80;;;;;;;;;;4975158;28;20426;-80
2021/08/23 00:07:11;;;;;;;8.27;5.93;;;;;;;;;;4975998;28;20566;-81
2021/08/23 00:10:03;;;;;;;10.30;6.10;;;;;;;;;;4977288;28;20737;-79
2021/08/23 00:12:48;;;;;;;7.67;5.97;;;;;;;;;;4975652;28;20398;-80
2021/08/23 00:15:27;;;;;;;8.43;5.87;;;;;;;;;;4975849;28;20440;-80
2021/08/23 00:21:27;;;;;;;8.47;5.83;;;;;;;;;;4974465;28;20390;-80
2021/08/23 00:27:05;;;;;;;;;;;;;;;;;;;;;
2021/08/23 00:30:13;;;;;;;;;;;;;;;;;;;;;
2021/08/23 00:32:54;;;;;;;9.47;6.13;;;;;;;;;;4932012;29;20508;-79
2021/08/23 00:35:28;;;;;;;7.10;6.23;;;;;;;;;;4919981;29;20455;-80
2021/08/23 00:38:21;;;;;;;10.10;6.10;;;;;;;;;;4935152;29;20415;-81
2021/08/23 00:44:19;;;;;;;7.57;6.00;;;;;;;;;;4910180;29;20427;-80
2021/08/23 00:49:48;;;;;;;7.13;5.87;;;;;;;;;;4921712;29;20435;-80
2021/08/23 00:52:16;;;;;;;8.93;5.63;;;;;;;;;;4936017;29;20415;-79
2021/08/23 00:54:45;;;;;;;9.40;6.50;;;;;;;;;;4952309;28;20443;-79
2021/08/23 00:57:16;;;;;;;6.83;5.47;;;;;;;;;;4959212;28;20975;-80
2021/08/23 00:59:56;;;;;;;;;;;;;;;;;;;;;
2021/08/23 01:02:28;;;;;;;9.47;6.30;;;;;;;;;;4974388;28;20372;-81
2021/08/23 01:04:59;;;;;;;6.23;5.23;;;;;;;;;;4973682;28;20841;-80
2021/08/23 01:07:41;;;;;;;6.27;5.67;;;;;;;;;;4957859;28;20462;-79
2021/08/23 01:10:17;;;;;;;7.87;6.13;;;;;;;;;;4957833;28;20447;-80
2021/08/23 01:12:55;;;;;;;7.50;5.73;;;;;;;;;;4973634;28;20435;-80
2021/08/23 01:15:23;;;;;;;8.23;6.27;;;;;;;;;;4975925;28;20437;-79
2021/08/23 01:17:51;;;;;;;9.27;8.23;;;;;;;;;;4975136;28;20846;-81
2021/08/23 01:20:21;;;;;;;11.20;7.70;;;;;;;;;;4974975;28;20424;-79
2021/08/23 01:22:52;;;;;;;10.10;7.23;;;;;;;;;;4975765;28;20418;-79
2021/08/23 01:25:27;;;;;;;10.30;7.77;;;;;;;;;;4975595;28;20445;-79
2021/08/23 01:28:06;;;;;;;12.83;7.30;;;;;;;;;;4975684;28;20458;-80
2021/08/23 01:30:36;;;;;;;8.53;6.67;;;;;;;;;;4974479;28;20390;-79
2021/08/23 01:33:05;;;;;;;12.20;7.50;;;;;;;;;;4974167;28;20415;-79
2021/08/23 01:35:31;;;;;;;8.90;8.10;;;;;;;;;;4975482;28;20432;-81
2021/08/23 01:37:58;;;;;;;8.23;7.43;;;;;;;;;;4975594;28;20411;-80
2021/08/23 01:40:24;;;;;;;7.50;6.90;;;;;;;;;;4974218;28;20489;-80
2021/08/23 01:42:53;;;;;;;8.20;7.40;;;;;;;;;;4975169;28;20416;-81
2021/08/23 01:45:19;;;;;;;12.87;8.27;;;;;;;;;;4975423;28;20531;-80
2021/08/23 01:47:45;;;;;;;6.73;6.13;;;;;;;;;;4975286;28;20438;-81
2021/08/23 01:50:13;;;;;;;7.40;6.70;;;;;;;;;;4975409;28;20435;-80
2021/08/23 01:52:39;;;;;;;7.23;6.10;;;;;;;;;;4975378;28;20427;-80
2021/08/23 01:55:09;;;;;;;6.77;6.07;;;;;;;;;;4974056;28;20447;-81
2021/08/23 01:57:38;;;;;;;8.53;7.10;;;;;;;;;;4975102;28;20970;-81
2021/08/23 02:00:10;;;;;;;7.50;6.77;;;;;;;;;;4973856;28;20431;-81
2021/08/23 02:02:36;;;;;;;6.83;6.23;;;;;;;;;;4973476;28;20450;-82
2021/08/23 02:05:08;;;;;;;9.23;7.77;;;;;;;;;;4973514;28;20440;-80
2021/08/23 02:07:37;;;;;;;8.73;7.83;;;;;;;;;;4973514;28;20968;-80
2021/08/23 02:10:04;;;;;;;8.60;7.80;;;;;;;;;;4974993;28;20761;-78
2021/08/23 02:12:35;;;;;;;8.50;7.27;;;;;;;;;;4974354;28;20438;-79
2021/08/23 02:15:04;;;;;;;7.53;6.83;;;;;;;;;;4989183;28;20428;-79
2021/08/23 02:17:30;;;;;;;8.03;7.27;;;;;;;;;;4973336;28;20394;-77
2021/08/23 02:19:56;;;;;;;10.77;7.50;;;;;;;;;;4973382;28;20419;-76
2021/08/23 02:22:25;;;;;;;9.07;8.17;;;;;;;;;;4974806;28;20474;-77
2021/08/23 02:24:51;;;;;;;10.87;7.70;;;;;;;;;;4974419;28;20434;-78
2021/08/23 02:27:20;;;;;;;9.23;8.33;;;;;;;;;;4973256;28;20854;-79
2021/08/23 02:29:46;;;;;;;7.73;6.87;;;;;;;;;;4974694;28;20409;-80
2021/08/23 02:32:12;;;;;;;8.10;7.40;;;;;;;;;;4973633;28;20424;-79
2021/08/23 02:34:38;;;;;;;8.57;7.73;;;;;;;;;;4973074;28;20991;-78
2021/08/23 02:37:07;;;;;;;9.07;6.93;;;;;;;;;;4973674;28;20427;-79
2021/08/23 02:39:35;;;;;;;8.00;7.30;;;;;;;;;;4973309;28;20404;-79
2021/08/23 02:42:01;;;;;;;7.50;6.80;;;;;;;;;;4974670;28;20478;-79
2021/08/23 02:44:33;;;;;;;8.77;7.50;;;;;;;;;;4972891;28;20406;-79
2021/08/23 02:47:02;;;;;;;8.30;7.50;;;;;;;;;;4973035;28;20998;-77
2021/08/23 02:49:35;;;;;;;9.10;8.20;;;;;;;;;;4973398;28;20416;-78
2021/08/23 02:52:07;;;;;;;8.03;7.33;;;;;;;;;;4973212;28;20395;-78
2021/08/23 02:54:35;;;;;;;7.90;7.17;;;;;;;;;;4972577;28;20423;-79
2021/08/23 02:57:01;;;;;;;11.03;7.17;;;;;;;;;;4974646;28;20419;-79
2021/08/23 02:59:32;;;;;;;7.97;7.17;;;;;;;;;;4972558;28;20455;-79
2021/08/23 03:01:58;;;;;;;8.10;7.40;;;;;;;;;;4972744;28;20476;-77
2021/08/23 03:04:30;;;;;;;9.63;7.00;;;;;;;;;;4972510;28;20455;-79
2021/08/23 03:06:56;;;;;;;6.80;6.17;;;;;;;;;;4974022;28;20554;-77
2021/08/23 03:09:22;;;;;;;9.37;6.93;;;;;;;;;;4973088;28;20507;-80
2021/08/23 03:14:46;;;;;;;10.13;7.60;;;;;;;;;;4963339;28;20481;-81
2021/08/23 03:17:21;;;;;;;8.77;7.87;;;;;;;;;;4972775;28;20416;-77
2021/08/23 03:19:50;;;;;;;9.27;8.27;;;;;;;;;;4972814;28;20423;-78
2021/08/23 03:22:23;;;;;;;7.70;6.90;;;;;;;;;;4974268;28;20426;-80
2021/08/23 03:24:52;;;;;;;11.80;8.40;;;;;;;;;;4973751;28;20442;-78
2021/08/23 03:27:22;;;;;;;9.03;8.13;;;;;;;;;;4974277;28;20811;-79
2021/08/23 03:29:51;;;;;;;9.20;7.70;;;;;;;;;;4974200;28;20393;-78
2021/08/23 03:32:24;;;;;;;9.03;7.93;;;;;;;;;;4972844;28;20416;-78
2021/08/23 03:34:53;;;;;;;8.90;7.97;;;;;;;;;;4973712;28;20513;-78
2021/08/23 03:37:27;;;;;;;9.20;7.80;;;;;;;;;;4974082;28;20401;-78
2021/08/23 03:39:53;;;;;;;8.97;8.10;;;;;;;;;;4974183;28;20421;-80
2021/08/23 03:42:29;;;;;;;10.30;6.80;;;;;;;;;;4973949;28;20392;-80
2021/08/23 03:45:04;;;;;;;9.50;8.13;;;;;;;;;;4972589;28;20935;-78
2021/08/23 03:48:14;;;;;;;13.57;8.03;;;;;;;;;;4973860;28;20481;-80
2021/08/23 03:50:41;;;;;;;8.43;7.63;;;;;;;;;;4973480;28;20419;-80
2021/08/23 03:53:17;;;;;;;10.83;8.30;;;;;;;;;;4972211;28;20913;-81
2021/08/23 03:55:43;;;;;;;7.80;7.00;;;;;;;;;;4973995;28;20864;-80
2021/08/23 03:58:09;;;;;;;8.53;7.67;;;;;;;;;;4974035;28;20393;-80
2021/08/23 04:00:38;;;;;;;9.00;7.53;;;;;;;;;;4973808;28;20424;-79
2021/08/23 04:03:16;;;;;;;8.70;7.13;;;;;;;;;;4973454;28;20423;-80
2021/08/23 04:05:55;;;;;;;;;;;;;;;;;;;;;
2021/08/23 04:08:21;;;;;;;7.93;7.27;;;;;;;;;;4973665;28;20496;-81
2021/08/23 04:10:56;;;;;;;8.80;8.00;;;;;;;;;;4972470;28;20506;-81
2021/08/23 04:13:31;;;;;;;7.80;6.77;;;;;;;;;;4974818;28;20417;-79
2021/08/23 04:16:00;;;;;;;9.90;7.10;;;;;;;;;;4977166;28;20427;-81
2021/08/23 04:18:26;;;;;;;7.97;7.13;;;;;;;;;;4975796;28;20863;-80
2021/08/23 04:20:52;;;;;;;7.80;7.10;;;;;;;;;;4975789;28;20419;-80
2021/08/23 04:23:21;;;;;;;8.33;7.53;;;;;;;;;;4976685;28;20448;-79
2021/08/23 04:25:47;;;;;;;8.40;7.60;;;;;;;;;;4976984;28;20526;-80
2021/08/23 04:28:21;;;;;;;8.73;7.97;;;;;;;;;;4975739;28;20471;-81
2021/08/23 04:30:47;;;;;;;8.70;7.93;;;;;;;;;;4975514;28;20787;-81
2021/08/23 04:33:13;;;;;;;8.37;7.57;;;;;;;;;;4975485;28;20402;-80
2021/08/23 04:35:43;;;;;;;11.37;8.03;;;;;;;;;;4975562;28;20406;-81
2021/08/23 04:38:17;;;;;;;9.53;8.50;;;;;;;;;;4976654;28;20416;-80
2021/08/23 04:40:49;;;;;;;8.83;8.03;;;;;;;;;;4975846;28;20406;-81
2021/08/23 04:43:15;;;;;;;8.70;7.80;;;;;;;;;;4975367;28;20477;-80
2021/08/23 04:45:43;;;;;;;9.00;8.10;;;;;;;;;;4974914;28;20433;-80
2021/08/23 04:48:12;;;;;;;9.83;8.87;;;;;;;;;;4975038;28;20557;-81
2021/08/23 04:50:41;;;;;;;9.30;8.40;;;;;;;;;;4975684;28;20913;-77
2021/08/23 04:53:09;;;;;;;10.23;9.13;;;;;;;;;;4975012;28;20431;-80
2021/08/23 04:55:38;;;;;;;8.60;7.80;;;;;;;;;;4975222;28;20414;-79
2021/08/23 04:58:04;;;;;;;9.53;8.60;;;;;;;;;;4975199;28;20415;-81
2021/08/23 05:00:30;;;;;;;10.73;9.10;;;;;;;;;;4977954;28;20394;-81
2021/08/23 05:02:56;;;;;;;12.37;11.07;;;;;;;;;;4977924;28;20422;-79
2021/08/23 05:05:22;;;;;;;10.67;9.57;;;;;;;;;;5007577;28;20488;-80
2021/08/23 05:07:48;;;;;;;11.80;10.70;;;;;;;;;;5007443;28;20470;-77
2021/08/23 05:10:14;;;;;;;10.20;9.20;;;;;;;;;;5007409;28;20426;-81
2021/08/23 05:12:40;;;;;;;11.07;9.90;;;;;;;;;;5007308;28;20412;-80
2021/08/23 05:15:07;;;;;;;11.17;9.20;;;;;;;;;;5006670;28;20439;-81
2021/08/23 05:17:33;;;;;;;10.90;9.80;;;;;;;;;;5007342;28;20420;-81
2021/08/23 05:19:59;;;;;;;11.40;9.53;;;;;;;;;;4975961;28;20951;-80
2021/08/23 05:22:25;;;;;;;9.67;8.77;;;;;;;;;;5006846;28;20431;-80
2021/08/23 05:24:51;;;;;;;9.97;8.90;;;;;;;;;;4975337;28;20461;-81
2021/08/23 05:27:18;;;;;;;9.97;9.00;;;;;;;;;;4975960;28;20441;-81
2021/08/23 05:29:44;;;;;;;9.93;8.93;;;;;;;;;;4975856;28;20393;-80
2021/08/23 05:32:17;;;;;;;10.30;9.33;;;;;;;;;;4976000;28;20399;-81
2021/08/23 05:34:46;;;;;;;10.47;9.50;;;;;;;;;;4975721;28;20386;-74
2021/08/23 05:37:13;;;;;;;10.23;8.67;;;;;;;;;;5007064;28;20749;-77
2021/08/23 05:39:39;;;;;;;12.07;9.73;;;;;;;;;;4975803;28;20411;-77
2021/08/23 05:42:05;;;;;;;11.13;10.10;;;;;;;;;;4975854;28;20409;-77
2021/08/23 05:44:31;;;;;;;11.60;10.40;;;;;;;;;;4993044;28;20497;-77
2021/08/23 05:46:57;;;;;;;14.10;12.00;;;;;;;;;;4995135;28;20985;-77
2021/08/23 05:49:23;;;;;;;13.00;11.70;;;;;;;;;;4994934;28;20382;-79
2021/08/23 05:51:49;;;;;;;13.00;11.70;;;;;;;;;;4995008;28;20466;-78
2021/08/23 05:54:15;;;;;;;15.83;12.73;;;;;;;;;;4993432;28;20411;-79
2021/08/23 05:56:52;;;;;;;13.00;10.93;;;;;;;;;;4994684;28;20517;-80
2021/08/23 05:59:18;;;;;;;16.10;11.43;;;;;;;;;;4994613;28;20389;-79
2021/08/23 06:01:44;;;;;;;12.03;10.77;;;;;;;;;;4994711;28;20429;-80
2021/08/23 06:04:10;;;;;;;14.07;12.60;;;;;;;;;;4994363;28;20415;-78
2021/08/23 06:06:38;;;;;;;14.47;11.60;;;;;;;;;;5009510;28;20879;-79
2021/08/23 06:09:04;;;;;;;12.40;11.00;;;;;;;;;;4994667;28;20393;-79
2021/08/23 06:11:30;;;;;;;11.53;10.43;;;;;;;;;;5009742;28;20423;-78
2021/08/23 06:13:58;;;;;;;10.97;10.00;;;;;;;;;;4992958;28;20415;-79
2021/08/23 06:16:24;;;;;;;10.97;10.00;;;;;;;;;;5009728;28;20416;-80
2021/08/23 06:18:50;;;;;;;13.90;11.13;;;;;;;;;;5009477;28;20447;-79
2021/08/23 06:21:16;;;;;;;14.13;12.40;;;;;;;;;;5009768;28;20488;-79
2021/08/23 06:23:42;;;;;;;12.63;11.27;;;;;;;;;;4994204;28;20882;-78
2021/08/23 06:26:08;;;;;;;12.30;10.80;;;;;;;;;;5009540;28;20435;-80
2021/08/23 06:28:34;;;;;;;13.67;12.20;;;;;;;;;;5009540;28;21001;-79
2021/08/23 06:31:03;;;;;;;13.83;12.60;;;;;;;;;;4994438;28;20381;-79
2021/08/23 06:33:34;;;;;;;14.83;12.90;;;;;;;;;;4992903;28;21001;-79
2021/08/23 06:36:01;;;;;;;13.67;12.33;;;;;;;;;;5008300;28;20885;-79
2021/08/23 06:38:27;;;;;;;12.23;11.03;;;;;;;;;;5009164;28;20840;-78
2021/08/23 06:40:53;;;;;;;13.27;11.87;;;;;;;;;;4993390;28;20519;-80
2021/08/23 06:43:19;;;;;;;11.57;10.40;;;;;;;;;;5008972;28;20454;-79
2021/08/23 06:45:45;;;;;;;11.80;10.70;;;;;;;;;;5009070;28;20435;-80
2021/08/23 06:48:11;;;;;;;11.30;10.10;;;;;;;;;;5008615;28;20441;-79
2021/08/23 06:50:42;;;;;;;12.47;11.27;;;;;;;;;;5009158;28;20765;-79
2021/08/23 06:53:09;;;;;;;11.70;10.50;;;;;;;;;;5009043;28;20470;-79
2021/08/23 06:55:37;;;;;;;12.83;11.63;;;;;;;;;;5009191;28;20800;-78
2021/08/23 06:58:08;;;;;;;12.50;11.30;;;;;;;;;;5008923;28;20480;-79
2021/08/23 07:00:43;;;;;;;11.53;10.30;;;;;;;;;;5009062;28;20390;-80
2021/08/23 07:03:11;;;;;;;12.47;11.17;;;;;;;;;;5008661;28;20804;-80
2021/08/23 07:05:38;;;;;;;13.73;12.40;;;;;;;;;;5009062;28;20496;-78
2021/08/23 07:08:06;;;;;;;15.13;12.80;;;;;;;;;;5008927;28;20502;-79
2021/08/23 07:10:43;;;;;;;13.30;11.90;;;;;;;;;;5008876;28;20984;-80
2021/08/23 07:13:17;;;;;;;15.47;13.03;;;;;;;;;;4991973;28;20417;-79
2021/08/23 07:15:57;;;;;;;14.00;12.17;;;;;;;;;;4993547;28;20909;-79
2021/08/23 07:18:36;;;;;;;15.50;14.07;;;;;;;;;;4993554;28;20393;-79
2021/08/23 07:21:10;;;;;;;15.03;13.37;;;;;;;;;;5008634;28;20439;-79
2021/08/23 07:23:42;;;;;;;15.37;13.80;;;;;;;;;;4992030;28;20780;-79
2021/08/23 07:26:13;;;;;;;16.53;14.00;;;;;;;;;;4993289;28;20420;-79
2021/08/23 07:35:39;;;;;;;18.30;16.40;;;;;;;;;;4933244;29;20440;-79
2021/08/23 07:38:36;;;;;;;18.40;16.57;;;;;;;;;;4986015;28;20401;-79
2021/08/23 07:41:12;;;;;;;20.30;17.17;;;;;;;;;;4987898;28;20394;-78
2021/08/23 07:43:51;;;;;;;17.63;15.80;;;;;;;;;;4993289;28;20384;-79
2021/08/23 07:46:44;;;;;;;17.40;15.50;;;;;;;;;;4994564;28;20843;-79
2021/08/23 07:49:33;;;;;;;16.97;15.27;;;;;;;;;;5015266;28;20437;-79
2021/08/23 08:12:07;;;;;;;24.80;19.27;;;;;;;;;;4996798;28;21014;-79
2021/08/23 08:17:33;;;;;;;26.03;22.53;;;;;;;;;;5080782;22;20486;-79
2021/08/23 08:20:06;;;;;;;24.10;19.83;;;;;;;;;;5015059;28;20424;-79
2021/08/23 08:22:36;;;;;;;25.80;21.30;;;;;;;;;;5014876;28;20450;-78
2021/08/23 08:25:34;;;;;;;23.17;19.57;;;;;;;;;;5014292;28;20429;-79
2021/08/23 08:58:34;;;;;;;20.10;17.93;;;;;;;;;;4155542;26;20838;-76
2021/08/23 09:01:26;;;;;;;22.40;18.83;;;;;;;;;;4976545;28;20776;-77
2021/08/23 09:10:14;;;;;;;28.13;23.77;;;;;;;;;;4985247;28;20396;-78
2021/08/23 09:19:36;;;;;;;25.40;22.70;;;;;;;;;;5015016;28;20440;-77
2021/08/23 09:22:16;;;;;;;27.60;24.70;;;;;;;;;;5015052;28;20381;-77
2021/08/23 09:27:36;;;;;;;33.13;28.73;;;;;;;;;;4278930;26;20571;-79
2021/08/23 09:30:04;;;;;;;34.03;29.10;;;;;;;;;;4997667;28;20410;-79
2021/08/23 09:32:30;;;;;;;31.17;27.23;;;;;;;;;;5014815;28;20754;-80
2021/08/23 09:34:57;;;;;;;31.50;26.63;;;;;;;;;;5008938;28;20431;-80
2021/08/23 09:37:25;;;;;;;35.40;28.53;;;;;;;;;;4993792;28;20437;-79
2021/08/23 09:39:53;;;;;;;34.70;28.47;;;;;;;;;;4995305;28;20389;-80
2021/08/23 09:42:20;;;;;;;29.70;25.77;;;;;;;;;;4994126;28;20886;-79
2021/08/23 09:44:47;;;;;;;29.33;25.23;;;;;;;;;;4994758;28;20518;-79
2021/08/23 09:47:12;;;;;;;33.97;27.30;;;;;;;;;;4994784;28;20462;-80
2021/08/23 09:49:39;;;;;;;35.53;27.60;;;;;;;;;;4993815;28;20792;-80
2021/08/23 09:52:05;;;;;;;33.33;28.40;;;;;;;;;;4993789;28;20436;-80
2021/08/23 09:54:31;;;;;;;31.20;27.63;;;;;;;;;;4994543;28;20410;-79
2021/08/23 09:56:57;;;;;;;27.60;24.27;;;;;;;;;;4994733;28;20390;-79
2021/08/23 09:59:24;;;;;;;24.97;21.60;;;;;;;;;;4994601;28;20423;-79
2021/08/23 10:01:51;;;;;;;23.90;21.43;;;;;;;;;;4993850;28;20421;-79
2021/08/23 10:04:18;;;;;;;20.97;18.20;;;;;;;;;;4994349;28;20448;-77
2021/08/23 10:06:45;;;;;;;20.03;17.97;;;;;;;;;;4994506;28;20957;-77
2021/08/23 10:09:19;;;;;;;15.77;14.20;;;;;;;;;;4993188;28;20392;-78
2021/08/23 10:11:45;;;;;;;16.07;13.70;;;;;;;;;;4994582;28;20365;-77
2021/08/23 10:14:11;;;;;;;14.03;11.70;;;;;;;;;;4993958;28;20381;-77
2021/08/23 10:16:38;;;;;;;12.40;10.90;;;;;;;;;;4994163;28;20573;-79
2021/08/23 10:19:05;;;;;;;12.63;10.43;;;;;;;;;;4993089;28;20484;-79
2021/08/23 10:21:31;;;;;;;11.73;10.10;;;;;;;;;;4992967;28;20419;-78
2021/08/23 10:23:58;;;;;;;10.00;9.07;;;;;;;;;;4994079;28;20414;-77
2021/08/23 10:26:24;;;;;;;12.03;10.87;;;;;;;;;;4993962;28;20537;-78
2021/08/23 10:28:51;;;;;;;11.50;10.47;;;;;;;;;;4994295;28;20473;-79
2021/08/23 10:31:18;;;;;;;10.13;9.17;;;;;;;;;;4992928;28;20494;-77
2021/08/23 10:33:46;;;;;;;11.77;10.13;;;;;;;;;;4993878;28;20851;-77
2021/08/23 10:36:12;;;;;;;10.10;8.40;;;;;;;;;;4992730;28;20477;-78
2021/08/23 10:38:39;;;;;;;14.50;9.80;;;;;;;;;;4994256;28;20477;-77
2021/08/23 10:41:27;;;;;;;11.60;9.17;;;;;;;;;;4989114;28;20468;-78
2021/08/23 10:44:08;;;;;;;11.17;8.70;;;;;;;;;;4993553;28;20419;-79
2021/08/23 10:46:39;;;;;;;9.30;8.40;;;;;;;;;;4992755;28;20443;-78
2021/08/23 10:49:11;;;;;;;9.10;8.20;;;;;;;;;;4992811;28;20427;-78
2021/08/23 10:52:06;;;;;;;9.13;8.20;;;;;;;;;;4992813;28;20422;-78
2021/08/23 10:54:47;;;;;;;9.33;8.07;;;;;;;;;;4992107;28;20987;-78
2021/08/23 10:57:20;;;;;;;9.70;8.80;;;;;;;;;;4992930;28;20465;-79
2021/08/23 10:59:46;;;;;;;8.57;7.80;;;;;;;;;;4992405;28;20427;-78
2021/08/23 11:02:14;;;;;;;8.73;7.57;;;;;;;;;;4994017;28;20422;-79
2021/08/23 11:12:27;;;;;;;6.47;5.67;;;;;;;;;;4992084;28;20470;-79
2021/08/23 11:28:16;;;;;;;8.50;7.20;;;;;;;;;;4896444;28;20526;-79
2021/08/23 12:03:12;;;;;;;9.47;8.13;;;;;;;;;;5016156;28;20454;-78
2021/08/23 12:08:42;;;;;;;7.43;6.80;;;;;;;;;;5016472;28;20618;-77
2021/08/23 12:11:29;;;;;;;9.20;8.47;;;;;;;;;;5016417;28;20826;-78
2021/08/23 12:14:31;;;;;;;;;;;;;;;;;;;;;
2021/08/23 12:20:33;;;;;;;8.73;7.83;;;;;;;;;;5016178;28;20369;-78
2021/08/23 12:29:35;;;;;;;9.87;8.87;;;;;;;;;;4974063;28;20896;-78
2021/08/23 12:35:49;;;;;;;10.83;9.83;;;;;;;;;;4936180;29;20480;-78
2021/08/23 12:41:59;;;;;;;10.47;9.47;;;;;;;;;;4879678;29;20402;-77
2021/08/23 12:51:23;;;;;;;;;;;;;;;;;;;;;
2021/08/23 12:57:13;;;;;;;13.10;8.30;;;;;;;;;;4810237;29;20441;-76
2021/08/23 12:59:39;;;;;;;12.87;11.63;;;;;;;;;;4938018;29;20435;-76
2021/08/23 13:02:06;;;;;;;10.00;9.07;;;;;;;;;;4978197;28;20943;-76
2021/08/23 13:04:32;;;;;;;8.73;7.93;;;;;;;;;;5013640;28;20440;-76
2021/08/23 13:06:58;;;;;;;9.93;9.03;;;;;;;;;;5015371;28;20469;-76
2021/08/23 13:09:30;;;;;;;11.20;10.00;;;;;;;;;;5015206;28;20425;-76
2021/08/23 13:12:02;;;;;;;9.90;8.90;;;;;;;;;;5011954;28;20493;-76
2021/08/23 13:14:34;;;;;;;12.00;9.37;;;;;;;;;;5013354;28;20475;-77
2021/08/23 13:17:00;;;;;;;9.97;8.97;;;;;;;;;;5013963;28;20427;-76
2021/08/23 13:19:26;;;;;;;11.90;9.87;;;;;;;;;;5014057;28;20830;-76
2021/08/23 13:21:57;;;;;;;10.50;9.40;;;;;;;;;;4997740;28;20434;-76
2021/08/23 13:24:23;;;;;;;11.40;10.40;;;;;;;;;;4997740;28;20425;-76
2021/08/23 13:26:52;;;;;;;10.50;9.17;;;;;;;;;;4997049;28;20504;-76
2021/08/23 13:29:24;;;;;;;10.10;9.00;;;;;;;;;;4997802;28;20400;-76
2021/08/23 13:31:50;;;;;;;10.03;8.67;;;;;;;;;;4997974;28;20514;-76
2021/08/23 13:34:19;;;;;;;12.03;9.30;;;;;;;;;;4997158;28;20426;-76
2021/08/23 13:42:59;;;;;;;9.93;9.03;;;;;;;;;;5053978;28;20490;-75
2021/08/23 13:45:47;;;;;;;10.97;9.97;;;;;;;;;;5061819;28;20912;-76
2021/08/23 13:51:21;;;;;;;8.60;7.90;;;;;;;;;;5074546;28;20391;-76
2021/08/23 13:56:57;;;;;;;9.80;8.70;;;;;;;;;;5074124;28;20789;-76
2021/08/23 13:59:23;;;;;;;9.80;8.83;;;;;;;;;;5074309;28;20403;-74
2021/08/23 14:01:52;;;;;;;10.17;9.17;;;;;;;;;;5056293;28;20557;-75
2021/08/23 14:04:18;;;;;;;9.10;8.20;;;;;;;;;;5073720;28;20394;-77
2021/08/23 14:06:44;;;;;;;9.47;8.10;;;;;;;;;;5073911;28;20445;-75
2021/08/23 14:09:10;;;;;;;7.77;7.07;;;;;;;;;;5073781;28;20419;-76
2021/08/23 14:11:36;;;;;;;9.40;8.47;;;;;;;;;;5073553;28;20521;-74
2021/08/23 14:14:02;;;;;;;10.30;9.40;;;;;;;;;;5073629;28;20502;-77
2021/08/23 14:16:28;;;;;;;11.37;10.37;;;;;;;;;;5056006;28;20807;-75
2021/08/23 14:18:56;;;;;;;11.63;10.53;;;;;;;;;;5073850;28;20919;-77
2021/08/23 14:21:22;;;;;;;11.43;9.90;;;;;;;;;;5056167;28;20433;-77
2021/08/23 14:23:49;;;;;;;9.80;8.90;;;;;;;;;;5073547;28;20823;-76
2021/08/23 14:26:15;;;;;;;9.50;8.70;;;;;;;;;;5073767;28;20417;-76
2021/08/23 14:28:40;;;;;;;9.67;8.77;;;;;;;;;;5073104;28;20801;-76
2021/08/23 14:31:06;;;;;;;9.63;8.77;;;;;;;;;;5073497;28;20438;-78
2021/08/23 14:33:32;;;;;;;11.80;9.80;;;;;;;;;;5073487;28;20439;-77
2021/08/23 14:35:59;;;;;;;10.30;9.30;;;;;;;;;;5073557;28;20759;-76
2021/08/23 14:38:25;;;;;;;11.30;10.40;;;;;;;;;;5073642;28;20426;-76
2021/08/23 14:40:51;;;;;;;11.67;10.67;;;;;;;;;;5073436;28;20426;-76
2021/08/23 14:43:17;;;;;;;11.47;10.27;;;;;;;;;;5072877;28;20454;-79
2021/08/23 14:45:43;;;;;;;11.70;10.70;;;;;;;;;;5073264;28;20790;-76
2021/08/23 14:48:09;;;;;;;10.50;9.60;;;;;;;;;;5073368;28;20470;-76
2021/08/23 14:50:35;;;;;;;10.00;8.90;;;;;;;;;;5073268;28;20464;-77
2021/08/23 14:53:01;;;;;;;11.50;9.33;;;;;;;;;;5073031;28;20414;-77
2021/08/23 14:55:27;;;;;;;9.10;8.30;;;;;;;;;;5072462;28;20427;-77
2021/08/23 14:57:53;;;;;;;9.93;9.00;;;;;;;;;;5073299;28;20415;-77
2021/08/23 15:00:19;;;;;;;10.10;9.20;;;;;;;;;;5073221;28;20393;-77
2021/08/23 15:02:48;;;;;;;8.97;8.13;;;;;;;;;;5072765;28;20406;-76
2021/08/23 15:05:15;;;;;;;11.50;8.70;;;;;;;;;;5073075;28;20423;-76
2021/08/23 15:07:43;;;;;;;10.33;9.33;;;;;;;;;;5073168;28;20523;-77
2021/08/23 15:10:09;;;;;;;8.20;7.50;;;;;;;;;;5073232;28;20411;-78
2021/08/23 15:12:35;;;;;;;8.93;7.10;;;;;;;;;;5072916;28;20929;-79
2021/08/23 15:15:03;;;;;;;9.07;8.27;;;;;;;;;;5054965;28;20433;-77
2021/08/23 15:17:29;;;;;;;10.57;7.63;;;;;;;;;;5072790;28;20378;-78
2021/08/23 15:19:55;;;;;;;8.87;7.80;;;;;;;;;;5073028;28;20418;-76
2021/08/23 15:22:21;;;;;;;8.10;7.30;;;;;;;;;;5073219;28;20407;-76
2021/08/23 15:24:47;;;;;;;9.10;8.20;;;;;;;;;;5072093;28;20923;-78
2021/08/23 15:27:13;;;;;;;9.67;8.77;;;;;;;;;;5073475;28;20437;-76
2021/08/23 15:29:39;;;;;;;11.90;8.80;;;;;;;;;;5072824;28;20897;-76
2021/08/23 15:32:05;;;;;;;9.17;8.27;;;;;;;;;;5072907;28;20536;-78
2021/08/23 15:34:31;;;;;;;10.30;8.20;;;;;;;;;;5072843;28;20813;-77
2021/08/23 15:36:57;;;;;;;10.83;9.70;;;;;;;;;;5055975;28;20390;-78
2021/08/23 15:39:23;;;;;;;10.27;9.20;;;;;;;;;;5076293;28;20407;-76
2021/08/23 15:41:49;;;;;;;11.23;10.20;;;;;;;;;;5075892;28;20397;-78
2021/08/23 15:44:15;;;;;;;11.57;10.40;;;;;;;;;;5054420;28;20414;-78
2021/08/23 15:46:42;;;;;;;10.27;9.23;;;;;;;;;;5072485;28;20435;-76
2021/08/23 15:49:08;;;;;;;13.20;9.03;;;;;;;;;;5072798;28;20422;-77
2021/08/23 15:51:34;;;;;;;9.50;8.60;;;;;;;;;;5072829;28;20411;-77
2021/08/23 15:54:00;;;;;;;9.47;8.43;;;;;;;;;;5072532;28;20419;-77
2021/08/23 15:56:26;;;;;;;9.93;8.20;;;;;;;;;;5072986;28;20434;-76
2021/08/23 15:58:52;;;;;;;10.20;9.20;;;;;;;;;;5072605;28;21289;-77
2021/08/23 16:01:18;;;;;;;11.60;10.47;;;;;;;;;;5073177;28;20442;-78
2021/08/23 16:03:44;;;;;;;11.37;8.90;;;;;;;;;;5072766;28;20419;-76
2021/08/23 16:06:10;;;;;;;9.53;8.40;;;;;;;;;;5072892;28;20506;-78
2021/08/23 16:08:36;;;;;;;9.67;8.73;;;;;;;;;;5076294;28;20565;-77
2021/08/23 16:11:03;;;;;;;11.17;7.47;;;;;;;;;;5076714;28;20435;-77
2021/08/23 16:13:30;;;;;;;8.10;7.40;;;;;;;;;;5076187;28;20418;-78
2021/08/23 16:15:56;;;;;;;9.63;6.33;;;;;;;;;;5076312;28;20461;-77
2021/08/23 16:18:22;;;;;;;9.10;8.20;;;;;;;;;;5058566;28;20907;-78
2021/08/23 16:20:48;;;;;;;8.20;6.97;;;;;;;;;;5076371;28;20472;-79
2021/08/23 16:23:14;;;;;;;7.50;6.80;;;;;;;;;;5075919;28;20411;-78
2021/08/23 16:25:40;;;;;;;10.93;8.53;;;;;;;;;;5075874;28;20483;-78
2021/08/23 16:28:07;;;;;;;11.27;8.30;;;;;;;;;;5075628;28;20904;-77
2021/08/23 16:30:33;;;;;;;10.20;9.20;;;;;;;;;;5075894;28;20911;-78
2021/08/23 16:32:59;;;;;;;9.10;8.20;;;;;;;;;;5075712;28;20410;-76
2021/08/23 16:35:26;;;;;;;8.57;7.77;;;;;;;;;;5075805;28;20431;-77
2021/08/23 16:37:52;;;;;;;8.57;6.73;;;;;;;;;;5075550;28;20418;-76
2021/08/23 16:40:19;;;;;;;8.20;7.30;;;;;;;;;;5075413;28;20862;-77
2021/08/23 16:42:45;;;;;;;7.70;7.00;;;;;;;;;;5057527;28;20500;-77
2021/08/23 16:45:11;;;;;;;7.80;7.10;;;;;;;;;;5075731;28;20482;-75
2021/08/23 16:47:38;;;;;;;8.53;7.60;;;;;;;;;;5075803;28;20447;-77
2021/08/23 16:50:04;;;;;;;7.17;6.47;;;;;;;;;;5075623;28;20407;-77
2021/08/23 16:52:32;;;;;;;7.57;6.77;;;;;;;;;;5075517;28;20410;-76
2021/08/23 16:54:58;;;;;;;7.20;6.50;;;;;;;;;;5075099;28;20435;-77
2021/08/23 16:57:24;;;;;;;8.47;6.90;;;;;;;;;;5075907;28;20494;-78
2021/08/23 16:59:50;;;;;;;6.53;5.90;;;;;;;;;;5075659;28;20450;-77
2021/08/23 17:02:16;;;;;;;7.17;6.57;;;;;;;;;;5075991;28;20774;-77
2021/08/23 17:04:42;;;;;;;7.60;6.80;;;;;;;;;;5078573;28;20480;-75
2021/08/23 17:07:11;;;;;;;6.73;5.67;;;;;;;;;;5077271;28;20509;-77
2021/08/23 17:09:37;;;;;;;9.17;6.27;;;;;;;;;;5057209;28;20912;-77
2021/08/23 17:12:03;;;;;;;6.83;6.13;;;;;;;;;;5074975;28;20552;-78
2021/08/23 17:14:29;;;;;;;8.00;5.43;;;;;;;;;;5074366;28;20415;-77
2021/08/23 17:16:55;;;;;;;6.87;6.17;;;;;;;;;;5074364;28;20411;-77
2021/08/23 17:19:21;;;;;;;7.53;6.83;;;;;;;;;;5074306;28;20786;-76
2021/08/23 17:21:47;;;;;;;6.20;5.60;;;;;;;;;;5074926;28;20415;-77
2021/08/23 17:24:13;;;;;;;5.73;5.23;;;;;;;;;;5074499;28;20412;-77
2021/08/23 17:26:40;;;;;;;7.40;6.50;;;;;;;;;;5074398;28;20530;-77
2021/08/23 17:29:06;;;;;;;5.67;5.17;;;;;;;;;;5056759;28;20382;-76
2021/08/23 17:31:32;;;;;;;9.33;6.37;;;;;;;;;;5074582;28;20389;-78
2021/08/23 17:33:58;;;;;;;6.50;5.20;;;;;;;;;;5056322;28;20457;-78
2021/08/23 17:36:24;;;;;;;23.23;5.73;;;;;;;;;;5074345;28;20435;-77
2021/08/23 17:38:50;;;;;;;7.60;5.87;;;;;;;;;;5074279;28;20415;-78
2021/08/23 17:41:16;;;;;;;6.83;5.60;;;;;;;;;;5074095;28;20426;-78
2021/08/23 17:43:42;;;;;;;8.37;5.30;;;;;;;;;;5073677;28;20438;-76
2021/08/23 17:46:08;;;;;;;6.77;6.03;;;;;;;;;;5074250;28;20446;-76
2021/08/23 17:48:34;;;;;;;6.27;5.63;;;;;;;;;;5074239;28;20495;-77
2021/08/23 17:51:00;;;;;;;6.90;6.20;;;;;;;;;;5074197;28;20403;-78
2021/08/23 17:53:26;;;;;;;6.97;6.23;;;;;;;;;;5073788;28;20791;-78
2021/08/23 17:55:52;;;;;;;7.87;5.40;;;;;;;;;;5074271;28;20424;-75
2021/08/23 17:58:18;;;;;;;6.50;5.90;;;;;;;;;;5074429;28;20502;-76
2021/08/23 18:00:44;;;;;;;7.40;6.27;;;;;;;;;;5074171;28;20892;-76